createdAt,value
2018-12-29T00:02:25.774Z,102409.72
2018-12-29T00:04:52.978Z,102409.73
2018-12-29T00:07:20.428Z,102402.40
2018-12-29T00:09:48.008Z,102418.06
2018-12-29T00:12:15.201Z,102414.60
2018-12-29T00:14:42.464Z,102406.16
2018-12-29T00:17:09.617Z,102408.75
2018-12-29T00:19:36.779Z,102405.80
2018-12-29T00:22:04.073Z,102400.96
2018-12-29T00:24:31.277Z,102398.77
2018-12-29T00:26:58.455Z,102401.36
2018-12-29T00:29:25.697Z,102402.80
2018-12-29T00:31:52.846Z,102393.45
2018-12-29T00:34:20.039Z,102395.51
2018-12-29T00:36:47.430Z,102387.83
2018-12-29T00:39:14.608Z,102389.22
2018-12-29T00:41:41.666Z,102395.55
2018-12-29T00:44:08.875Z,102387.30
2018-12-29T00:46:36.036Z,102387.56
2018-12-29T00:49:03.201Z,102384.95
2018-12-29T00:51:30.695Z,102379.00
2018-12-29T00:53:57.889Z,102394.66
2018-12-29T00:56:25.045Z,102394.26
2018-12-29T00:58:52.259Z,102395.63
2018-12-29T01:01:19.407Z,102399.47
2018-12-29T01:03:46.629Z,102394.26
2018-12-29T01:06:14.153Z,102399.39
2018-12-29T01:08:41.313Z,102396.84
2018-12-29T01:11:08.813Z,102388.05
2018-12-29T01:13:36.279Z,102393.19
2018-12-29T01:16:03.363Z,102382.72
2018-12-29T01:18:30.569Z,102385.66
2018-12-29T01:20:57.681Z,102395.78
2018-12-29T01:23:24.736Z,102390.70
2018-12-29T01:25:52.486Z,102388.92
2018-12-29T01:28:20.535Z,102391.54
2018-12-29T01:30:47.775Z,102386.89
2018-12-29T01:33:14.847Z,102384.35
2018-12-29T01:35:41.936Z,102382.70
2018-12-29T01:38:09.388Z,102386.95
2018-12-29T01:40:36.541Z,102372.94
2018-12-29T01:43:03.770Z,102376.48
2018-12-29T01:45:30.965Z,102382.51
2018-12-29T01:47:58.003Z,102387.69
2018-12-29T01:50:25.207Z,102387.71
2018-12-29T01:52:52.383Z,102391.66
2018-12-29T01:55:19.539Z,102396.46
2018-12-29T01:57:46.750Z,102402.06
2018-12-29T02:00:13.804Z,102403.21
2018-12-29T02:02:41.021Z,102400.98
2018-12-29T02:05:11.958Z,102405.34
2018-12-29T02:07:39.129Z,102408.48
2018-12-29T02:10:06.223Z,102405.84
2018-12-29T02:12:33.736Z,102407.88
2018-12-29T02:15:00.912Z,102415.73
2018-12-29T02:17:28.089Z,102420.45
2018-12-29T02:19:55.305Z,102427.38
2018-12-29T02:22:22.441Z,102415.66
2018-12-29T02:24:49.617Z,102406.39
2018-12-29T02:27:16.790Z,102400.30
2018-12-29T02:29:43.999Z,102397.28
2018-12-29T02:32:11.154Z,102395.16
2018-12-29T02:34:38.359Z,102403.92
2018-12-29T02:37:05.518Z,102391.40
2018-12-29T02:39:32.697Z,102390.10
2018-12-29T02:42:00.086Z,102388.44
2018-12-29T02:44:27.511Z,102391.05
2018-12-29T02:46:54.570Z,102397.14
2018-12-29T02:49:21.826Z,102393.19
2018-12-29T02:51:49.015Z,102378.76
2018-12-29T02:54:16.212Z,102384.89
2018-12-29T02:56:43.419Z,102384.97
2018-12-29T02:59:10.609Z,102379.42
2018-12-29T03:01:37.771Z,102372.98
2018-12-29T03:04:04.951Z,102359.93
2018-12-29T03:06:32.159Z,102358.97
2018-12-29T03:08:59.372Z,102358.11
2018-12-29T03:11:26.557Z,102364.58
2018-12-29T03:13:53.719Z,102358.91
2018-12-29T03:16:20.935Z,102351.87
2018-12-29T03:18:48.114Z,102344.48
2018-12-29T03:21:16.177Z,102342.67
2018-12-29T03:23:43.247Z,102339.94
2018-12-29T03:26:10.453Z,102340.36
2018-12-29T03:28:37.504Z,102341.80
2018-12-29T03:31:04.685Z,102334.41
2018-12-29T03:33:32.131Z,102325.37
2018-12-29T03:35:59.187Z,102342.84
2018-12-29T03:38:26.339Z,102330.88
2018-12-29T03:40:53.649Z,102330.39
2018-12-29T03:43:20.810Z,102326.44
2018-12-29T03:45:49.212Z,102320.81
2018-12-29T03:48:16.711Z,102322.88
2018-12-29T03:50:43.770Z,102327.70
2018-12-29T03:53:11.614Z,102328.56
2018-12-29T03:55:39.330Z,102336.36
2018-12-29T03:58:06.484Z,102338.06
2018-12-29T04:00:33.946Z,102337.55
2018-12-29T04:03:01.157Z,102349.13
2018-12-29T04:05:28.238Z,102355.63
2018-12-29T04:07:55.404Z,102353.48
2018-12-29T04:10:22.847Z,102350.81
2018-12-29T04:12:53.504Z,102348.94
2018-12-29T04:15:20.871Z,102338.15
2018-12-29T04:17:47.985Z,102338.21
2018-12-29T04:20:15.157Z,102339.46
2018-12-29T04:22:42.345Z,102345.95
2018-12-29T04:25:09.641Z,102344.65
2018-12-29T04:27:36.804Z,102345.05
2018-12-29T04:30:04.024Z,102348.61
2018-12-29T04:32:31.277Z,102346.94
2018-12-29T04:34:58.448Z,102354.30
2018-12-29T04:37:25.595Z,102353.44
2018-12-29T04:39:52.822Z,102356.69
2018-12-29T04:42:19.979Z,102360.99
2018-12-29T04:44:47.180Z,102375.03
2018-12-29T04:47:14.379Z,102366.66
2018-12-29T04:49:41.516Z,102369.18
2018-12-29T04:52:10.463Z,102370.65
2018-12-29T04:54:37.661Z,102374.16
2018-12-29T04:57:04.709Z,102381.55
2018-12-29T04:59:31.888Z,102386.00
2018-12-29T05:01:59.066Z,102381.27
2018-12-29T05:04:26.218Z,102392.61
2018-12-29T05:06:53.367Z,102389.53
2018-12-29T05:15:00.202Z,102387.15
2018-12-29T05:17:27.380Z,102388.03
2018-12-29T05:19:54.531Z,102384.20
2018-12-29T05:22:21.817Z,102385.17
2018-12-29T05:24:49.016Z,102388.72
2018-12-29T05:27:16.218Z,102388.59
2018-12-29T05:29:43.464Z,102385.52
2018-12-29T05:32:51.442Z,102384.02
2018-12-29T05:35:18.661Z,102389.27
2018-12-29T05:37:45.834Z,102382.70
2018-12-29T05:45:54.892Z,102381.34
2018-12-29T05:48:22.074Z,102376.16
2018-12-29T05:50:49.287Z,102377.04
2018-12-29T05:53:35.955Z,102370.89
2018-12-29T05:59:36.760Z,102369.09
2018-12-29T06:02:03.947Z,102372.11
2018-12-29T06:04:31.150Z,102368.55
2018-12-29T06:07:17.812Z,102357.79
2018-12-29T06:10:16.911Z,102371.13
2018-12-29T06:12:45.354Z,102357.46
2018-12-29T06:15:19.832Z,102367.45
2018-12-29T06:17:46.999Z,102369.31
2018-12-29T06:20:33.724Z,102379.63
2018-12-29T06:28:54.603Z,102380.78
2018-12-29T06:31:21.724Z,102372.93
2018-12-29T06:33:48.909Z,102382.92
2018-12-29T06:36:15.997Z,102376.89
2018-12-29T06:38:43.183Z,102378.46
2018-12-29T06:41:10.374Z,102376.73
2018-12-29T06:43:57.070Z,102381.94
2018-12-29T06:46:43.709Z,102375.46
2018-12-29T06:49:10.887Z,102374.94
2018-12-29T06:51:39.193Z,102379.98
2018-12-29T06:54:16.606Z,102392.27
2018-12-29T06:56:43.780Z,102383.72
2018-12-29T07:02:29.614Z,102395.14
2018-12-29T07:04:57.146Z,102400.95
2018-12-29T07:07:43.832Z,102396.73
2018-12-29T07:10:11.364Z,102402.34
2018-12-29T07:12:38.635Z,102399.66
2018-12-29T07:18:20.175Z,102414.45
2018-12-29T07:20:47.267Z,102410.56
2018-12-29T07:26:15.596Z,102422.66
2018-12-29T07:28:42.725Z,102429.55
2018-12-29T07:31:10.294Z,102428.12
2018-12-29T07:36:15.964Z,102439.31
2018-12-29T07:39:03.683Z,102440.21
2018-12-29T07:41:30.876Z,102442.81
2018-12-29T07:43:58.088Z,102452.27
2018-12-29T07:46:25.546Z,102447.88
2018-12-29T07:52:13.343Z,102449.66
2018-12-29T07:54:40.428Z,102443.02
2018-12-29T07:57:07.630Z,102435.14
2018-12-29T07:59:34.800Z,102437.00
2018-12-29T08:02:01.990Z,102439.27
2018-12-29T08:04:48.763Z,102439.26
2018-12-29T08:07:16.251Z,102436.23
2018-12-29T08:10:24.355Z,102439.75
2018-12-29T08:16:10.022Z,102437.05
2018-12-29T08:21:38.210Z,102439.09
2018-12-29T08:24:24.927Z,102427.56
2018-12-29T08:26:52.168Z,102430.66
2018-12-29T08:35:59.953Z,102437.53
2018-12-29T08:38:27.123Z,102430.50
2018-12-29T08:40:54.310Z,102440.64
2018-12-29T08:43:21.504Z,102436.68
2018-12-29T08:45:48.695Z,102436.19
2018-12-29T08:48:35.366Z,102438.52
2018-12-29T08:54:36.171Z,102448.62
2018-12-29T08:57:23.045Z,102451.45
2018-12-29T08:59:50.284Z,102452.22
2018-12-29T09:08:58.834Z,102432.58
2018-12-29T09:11:26.048Z,102436.77
2018-12-29T09:16:54.549Z,102440.30
2018-12-29T09:19:27.189Z,102446.72
2018-12-29T09:22:00.292Z,102444.41
2018-12-29T09:24:28.013Z,102447.41
2018-12-29T09:26:55.191Z,102448.62
2018-12-29T09:29:41.782Z,102454.17
2018-12-29T09:38:09.139Z,102444.05
2018-12-29T09:40:36.327Z,102436.13
2018-12-29T09:43:03.964Z,102428.88
2018-12-29T09:45:31.055Z,102415.78
2018-12-29T09:51:51.386Z,102414.31
2018-12-29T09:54:18.588Z,102425.08
2018-12-29T09:56:45.751Z,102419.87
2018-12-29T09:59:53.809Z,102418.91
2018-12-29T10:02:21.040Z,102425.72
2018-12-29T10:04:48.250Z,102438.36
2018-12-29T10:07:15.839Z,102441.02
2018-12-29T10:09:43.086Z,102434.45
2018-12-29T10:12:10.341Z,102438.91
2018-12-29T10:15:18.722Z,102438.83
2018-12-29T10:17:46.126Z,102437.53
2018-12-29T10:20:13.679Z,102431.41
2018-12-29T10:22:40.875Z,102430.45
2018-12-29T10:25:08.078Z,102429.44
2018-12-29T10:27:47.497Z,102431.97
2018-12-29T10:30:14.674Z,102436.17
2018-12-29T10:33:01.492Z,102433.45
2018-12-29T10:35:30.487Z,102434.33
2018-12-29T10:37:57.668Z,102422.13
2018-12-29T10:40:56.651Z,102428.50
2018-12-29T10:43:23.832Z,102421.33
2018-12-29T10:46:10.793Z,102413.39
2018-12-29T10:48:37.983Z,102415.47
2018-12-29T10:54:06.187Z,102412.69
2018-12-29T10:56:33.817Z,102414.20
2018-12-29T10:59:01.306Z,102408.61
2018-12-29T11:01:30.734Z,102403.80
2018-12-29T11:03:57.918Z,102402.78
2018-12-29T11:09:26.597Z,102379.52
2018-12-29T11:11:53.849Z,102375.52
2018-12-29T11:14:40.535Z,102372.47
2018-12-29T11:17:07.741Z,102372.06
2018-12-29T11:19:34.962Z,102365.85
2018-12-29T11:22:02.196Z,102357.03
2018-12-29T11:24:31.318Z,102356.66
2018-12-29T11:27:18.165Z,102351.46
2018-12-29T11:29:45.353Z,102332.95
2018-12-29T11:32:12.642Z,102337.52
2018-12-29T11:35:20.698Z,102336.54
2018-12-29T11:37:47.908Z,102325.20
2018-12-29T11:40:15.105Z,102322.45
2018-12-29T11:45:20.530Z,102303.63
2018-12-29T11:47:50.022Z,102303.38
2018-12-29T11:50:26.442Z,102290.31
2018-12-29T11:53:06.374Z,102291.53
2018-12-29T11:55:33.630Z,102286.14
2018-12-29T11:58:08.530Z,102281.42
2018-12-29T12:03:37.655Z,102271.62
2018-12-29T12:06:04.787Z,102262.71
2018-12-29T12:08:32.015Z,102265.52
2018-12-29T12:10:59.575Z,102270.52
2018-12-29T12:13:26.789Z,102278.35
2018-12-29T12:18:34.032Z,102277.41
2018-12-29T12:21:42.205Z,102291.48
2018-12-29T12:24:28.930Z,102289.77
2018-12-29T12:26:56.116Z,102288.30
2018-12-29T12:29:55.083Z,102284.12
2018-12-29T12:32:22.270Z,102278.52
2018-12-29T12:34:57.620Z,102276.25
2018-12-29T12:37:30.680Z,102267.73
2018-12-29T12:40:06.241Z,102262.98
2018-12-29T12:42:33.468Z,102267.50
2018-12-29T12:48:19.675Z,102259.25
2018-12-29T12:50:47.110Z,102255.62
2018-12-29T12:53:14.279Z,102245.94
2018-12-29T12:55:53.148Z,102248.84
2018-12-29T12:59:09.281Z,102235.23
2018-12-29T13:01:36.512Z,102233.74
2018-12-29T13:04:23.159Z,102229.05
2018-12-29T13:06:50.424Z,102229.20
2018-12-29T13:09:17.591Z,102226.94
2018-12-29T13:12:04.295Z,102230.11
2018-12-29T13:20:32.313Z,102214.45
2018-12-29T13:22:59.483Z,102232.44
2018-12-29T13:25:26.722Z,102239.77
2018-12-29T13:28:13.668Z,102247.64
2018-12-29T13:31:00.347Z,102253.81
2018-12-29T13:33:27.575Z,102266.22
2018-12-29T13:38:53.855Z,102277.47
2018-12-29T13:41:21.063Z,102276.67
2018-12-29T13:46:49.580Z,102289.88
2018-12-29T13:52:17.955Z,102266.53
2018-12-29T13:54:45.050Z,102261.03
2018-12-29T13:57:12.573Z,102261.09
2018-12-29T13:59:39.708Z,102268.28
2018-12-29T14:02:06.877Z,102263.95
2018-12-29T14:04:34.045Z,102265.23
2018-12-29T14:10:02.006Z,102259.52
2018-12-29T14:12:30.981Z,102248.05
2018-12-29T14:17:57.489Z,102231.97
2018-12-29T14:20:24.701Z,102227.38
2018-12-29T14:22:51.901Z,102217.92
2018-12-29T14:25:19.133Z,102206.68
2018-12-29T14:27:46.291Z,102208.24
2018-12-29T14:30:13.850Z,102209.14
2018-12-29T14:32:52.941Z,102204.55
2018-12-29T14:35:20.161Z,102193.55
2018-12-29T14:37:47.334Z,102197.43
2018-12-29T14:40:42.113Z,102192.74
2018-12-29T14:43:09.323Z,102175.11
2018-12-29T14:48:36.617Z,102187.19
2018-12-29T14:51:04.177Z,102189.15
2018-12-29T14:53:33.185Z,102187.28
2018-12-29T14:56:08.616Z,102187.00
2018-12-29T14:58:35.825Z,102182.46
2018-12-29T15:01:02.991Z,102175.10
2018-12-29T15:03:30.566Z,102161.08
2018-12-29T15:05:57.684Z,102163.73
2018-12-29T15:08:24.863Z,102154.09
2018-12-29T15:10:52.105Z,102146.73
2018-12-29T15:13:40.952Z,102152.25
2018-12-29T15:16:27.939Z,102174.48
2018-12-29T15:19:14.577Z,102187.28
2018-12-29T15:22:01.334Z,102196.91
2018-12-29T15:24:48.686Z,102202.47
2018-12-29T15:27:16.172Z,102205.86
2018-12-29T15:29:43.387Z,102209.19
2018-12-29T15:32:32.250Z,102216.17
2018-12-29T15:35:07.541Z,102220.89
2018-12-29T15:37:54.513Z,102211.30
2018-12-29T15:40:41.141Z,102208.22
2018-12-29T15:43:49.209Z,102204.16
2018-12-29T15:49:37.696Z,102198.66
2018-12-29T15:52:04.897Z,102180.80
2018-12-29T15:55:02.971Z,102173.15
2018-12-29T16:01:14.582Z,102153.00
2018-12-29T16:10:16.249Z,102122.88
2018-12-29T16:12:43.802Z,102109.37
2018-12-29T16:15:38.727Z,102117.07
2018-12-29T16:18:05.831Z,102100.05
2018-12-29T16:20:32.955Z,102100.58
2018-12-29T16:23:00.160Z,102096.02
2018-12-29T16:25:27.340Z,102092.41
2018-12-29T16:27:54.559Z,102085.73
2018-12-29T16:30:43.451Z,102075.26
2018-12-29T16:33:10.528Z,102076.69
2018-12-29T16:35:57.132Z,102074.69
2018-12-29T16:38:24.332Z,102067.56
2018-12-29T16:40:57.852Z,102075.18
2018-12-29T16:43:49.778Z,102074.01
2018-12-29T16:46:17.457Z,102107.11
2018-12-29T16:49:25.492Z,102091.89
2018-12-29T16:51:52.603Z,102077.13
2018-12-29T16:54:39.393Z,102073.14
2018-12-29T16:57:07.109Z,102061.27
2018-12-29T16:59:34.830Z,102055.52
2018-12-29T17:10:43.137Z,102058.86
2018-12-29T17:13:10.849Z,102055.42
2018-12-29T17:15:38.953Z,102044.12
2018-12-29T17:18:06.674Z,102039.09
2018-12-29T17:20:54.181Z,102055.69
2018-12-29T17:23:40.936Z,102046.52
2018-12-29T17:26:08.332Z,102065.76
2018-12-29T17:29:03.232Z,102073.38
2018-12-29T17:31:30.459Z,102070.94
2018-12-29T17:34:06.026Z,102060.97
2018-12-29T17:36:33.270Z,102066.59
2018-12-29T17:39:00.495Z,102095.86
2018-12-29T17:41:27.820Z,102098.70
2018-12-29T17:43:55.050Z,102097.41
2018-12-29T17:46:22.260Z,102078.03
2018-12-29T17:48:49.658Z,102073.38
2018-12-29T17:51:17.355Z,102071.31
2018-12-29T17:53:48.097Z,102059.30
2018-12-29T17:56:23.764Z,102036.25
2018-12-29T17:59:10.491Z,102017.07
2018-12-29T18:04:37.030Z,102004.41
2018-12-29T18:07:04.212Z,101999.73
2018-12-29T18:09:57.150Z,101990.52
2018-12-29T18:12:26.683Z,101994.21
2018-12-29T18:14:53.951Z,101989.47
2018-12-29T18:17:21.154Z,102000.45
2018-12-29T18:19:48.429Z,102001.20
2018-12-29T18:22:15.675Z,101988.80
2018-12-29T18:24:42.859Z,101979.16
2018-12-29T18:27:22.737Z,101969.97
2018-12-29T18:29:50.581Z,101961.02
2018-12-29T18:32:18.157Z,101962.83
2018-12-29T18:34:45.386Z,101965.29
2018-12-29T18:37:34.220Z,101942.50
2018-12-29T18:40:23.884Z,101961.20
2018-12-29T18:42:51.088Z,101950.44
2018-12-29T18:45:59.001Z,101945.11
2018-12-29T18:51:38.620Z,101939.16
2018-12-29T18:54:05.843Z,101913.41
2018-12-29T18:57:00.629Z,101907.64
2018-12-29T18:59:27.826Z,101922.36
2018-12-29T19:02:16.702Z,101930.44
2018-12-29T19:04:43.908Z,101926.84
2018-12-29T19:07:11.087Z,101949.67
2018-12-29T19:09:38.319Z,101947.97
2018-12-29T19:12:24.951Z,101955.69
2018-12-29T19:17:32.315Z,101951.11
2018-12-29T19:20:21.463Z,101953.55
2018-12-29T19:23:08.176Z,101948.41
2018-12-29T19:25:35.786Z,101936.88
2018-12-29T19:28:12.116Z,101935.72
2018-12-29T19:30:39.322Z,101948.63
2018-12-29T19:35:54.813Z,101936.41
2018-12-29T19:39:04.077Z,101933.30
2018-12-29T19:41:55.057Z,101926.09
2018-12-29T19:44:41.426Z,101919.41
2018-12-29T19:47:40.152Z,101917.97
2018-12-29T19:50:14.416Z,101922.09
2018-12-29T19:52:42.115Z,101907.11
2018-12-29T19:55:09.659Z,101907.75
2018-12-29T19:57:37.251Z,101915.88
2018-12-29T20:00:46.010Z,101919.52
2018-12-29T20:03:21.852Z,101901.11
2018-12-29T20:06:00.472Z,101888.48
2018-12-29T20:08:59.126Z,101888.73
2018-12-29T20:11:45.833Z,101888.77
2018-12-29T20:14:13.288Z,101884.62
2018-12-29T20:16:40.821Z,101891.70
2018-12-29T20:19:08.457Z,101892.05
2018-12-29T20:21:55.540Z,101885.92
2018-12-29T20:24:22.990Z,101876.30
2018-12-29T20:26:50.172Z,101872.19
2018-12-29T20:29:17.375Z,101868.75
2018-12-29T20:37:46.902Z,101859.85
2018-12-29T20:40:14.070Z,101855.73
2018-12-29T20:42:41.612Z,101852.61
2018-12-29T20:45:49.530Z,101855.06
2018-12-29T20:48:16.628Z,101849.17
2018-12-29T20:51:24.626Z,101856.80
2018-12-29T20:53:52.262Z,101852.89
2018-12-29T20:56:19.444Z,101836.16
2018-12-29T21:02:00.036Z,101814.11
2018-12-29T21:08:00.728Z,101814.37
2018-12-29T21:10:27.933Z,101793.38
2018-12-29T21:12:55.018Z,101804.84
2018-12-29T21:15:33.757Z,101804.14
2018-12-29T21:21:34.613Z,101803.10
2018-12-29T21:24:02.189Z,101799.02
2018-12-29T21:26:29.445Z,101793.57
2018-12-29T21:29:16.563Z,101779.13
2018-12-29T21:32:03.233Z,101783.91
2018-12-29T21:34:30.465Z,101781.34
2018-12-29T21:37:19.815Z,101777.77
2018-12-29T21:39:47.814Z,101780.50
2018-12-29T21:42:15.035Z,101780.20
2018-12-29T21:44:42.268Z,101792.36
2018-12-29T21:47:31.221Z,101779.13
2018-12-29T21:49:58.429Z,101766.17
2018-12-29T21:52:45.116Z,101773.26
2018-12-29T21:55:12.574Z,101763.32
2018-12-29T21:57:39.771Z,101773.52
2018-12-29T22:00:48.124Z,101770.73
2018-12-29T22:03:15.190Z,101786.00
2018-12-29T22:06:02.030Z,101783.50
2018-12-29T22:12:03.083Z,101781.84
2018-12-29T22:14:38.637Z,101786.25
2018-12-29T22:17:17.740Z,101781.98
2018-12-29T22:19:44.936Z,101762.41
2018-12-29T22:22:31.703Z,101783.44
2018-12-29T22:24:58.947Z,101781.00
2018-12-29T22:28:06.964Z,101771.51
2018-12-29T22:30:34.180Z,101766.08
2018-12-29T22:33:01.382Z,101771.97
2018-12-29T22:38:29.484Z,101767.58
2018-12-29T22:40:57.085Z,101760.11
2018-12-29T22:43:43.768Z,101765.14
2018-12-29T22:46:10.939Z,101757.30
2018-12-29T22:48:38.136Z,101756.04
2018-12-29T22:51:05.675Z,101748.14
2018-12-29T22:53:32.883Z,101735.37
2018-12-29T22:56:00.092Z,101743.07
2018-12-29T23:04:09.108Z,101727.57
2018-12-29T23:06:38.126Z,101731.45
2018-12-29T23:09:17.255Z,101729.45
2018-12-29T23:11:44.459Z,101722.67
2018-12-29T23:14:11.643Z,101723.24
2018-12-29T23:16:50.796Z,101733.37
2018-12-29T23:19:17.974Z,101714.20
2018-12-29T23:22:04.761Z,101714.67
2018-12-29T23:27:52.249Z,101718.94
2018-12-29T23:30:19.809Z,101737.50
2018-12-29T23:33:30.190Z,101731.53
2018-12-29T23:39:09.786Z,101723.35
2018-12-29T23:47:39.283Z,101720.27
2018-12-29T23:53:08.410Z,101708.19
2018-12-29T23:56:06.513Z,101697.68
2018-12-29T23:58:33.757Z,101671.63
